Terminal Aerodrome Forecast
Issued by NWS Mt. Holly, NJ

Current Version | Previous Version | Text Only | Print | Product List | Glossary On
Versions: 1 2 3 4 5 6 7 8 9 10 11 12 13 14 15 16 17 18 19 20 21 22 23 24 25 26
000
FTUS41 KPHI 282327
TAFABE
TAF
KABE 282327Z 2900/2924 34015G22KT P6SM BKN040 BKN060
     FM290600 32010G18KT P6SM SCT100
     FM291100 32010KT P6SM SKC
     FM292000 25006KT P6SM SKC=

USA.gov is the U.S. government's official web portal to all federal, state and local government web resources and services.